Kefi — ZJL9202 — position and weather

sailwx.info

Track history (hours):
 
Tides and Currents Weather Stations Pressure Air Temp Water Temp Dewpoint Dewpoint Depression Visibility Wind Speed Wind Dir Waves Ship Positions

Kefi

Last reported at 2018-Jun-16 15:31 UTC. Time now 2018-Jun-25 19:43 UTC.
Position N 36°49' W 076°17'.
Warning: this ship's position is 9 days out of date.

Length 30 m.

Type: Ship. MMSI: 378386000.

Date/timePositionNaut miles runAvg speedWind from/ knotsBaromVisibWave heightAir tempDewpointWater temp
2018-Jun-16 15:31N 36°49' W 076°17'1 5.8
2018-Jun-16 15:23N 36°48' W 076°17'2 5.1
2018-Jun-16 15:00N 36°46' W 076°18'119 2.9
2018-Jun-14 21:37N 34°49' W 076°41'1 5.3
2018-Jun-14 21:30N 34°48' W 076°41'4 7.8
2018-Jun-14 21:00N 34°44' W 076°41'611.3
2018-Jun-14 20:30N 34°39' W 076°41'19719.5
2018-Jun-14 10:23N 32°46' W 079°56'1 3.2
2018-Jun-14 09:58N 32°47' W 079°57'0 0.0
2018-Jun-14 09:28N 32°47' W 079°57'0 0.0
2018-Jun-14 08:58N 32°47' W 079°57'0 0.0
2018-Jun-14 08:28N 32°47' W 079°57'0 0.0
2018-Jun-14 07:58N 32°47' W 079°57'0 0.0
2018-Jun-14 07:28N 32°47' W 079°57'0 0.0
2018-Jun-14 06:58N 32°47' W 079°57'0 0.0
2018-Jun-14 06:28N 32°47' W 079°57'0 0.0
2018-Jun-14 05:58N 32°47' W 079°57'0 0.0
2018-Jun-14 05:28N 32°47' W 079°57'0 0.0
2018-Jun-14 04:58N 32°47' W 079°57'0 0.0
2018-Jun-14 04:28N 32°47' W 079°57'0 0.0
2018-Jun-14 03:58N 32°47' W 079°57'0 0.0
2018-Jun-14 03:28N 32°47' W 079°57'0 0.0
2018-Jun-14 02:58N 32°47' W 079°57'0 0.0
2018-Jun-14 02:28N 32°47' W 079°57'0 0.0
2018-Jun-14 01:58N 32°47' W 079°57'0 0.0
2018-Jun-14 01:28N 32°47' W 079°57'0 0.0
2018-Jun-14 00:40N 32°47' W 079°57'0 0.0
2018-Jun-14 00:28N 32°47' W 079°57'0 0.0
2018-Jun-13 23:58N 32°47' W 079°57'0 0.0
2018-Jun-13 23:28N 32°47' W 079°57'0 0.0
2018-Jun-13 22:58N 32°47' W 079°57'0 0.0
2018-Jun-13 22:28N 32°47' W 079°57'0 0.0
2018-Jun-13 21:58N 32°47' W 079°57'0 0.0
2018-Jun-13 21:28N 32°47' W 079°57'0 0.0
2018-Jun-13 20:58N 32°47' W 079°57'0 0.0
2018-Jun-13 20:28N 32°47' W 079°57'0 0.0
2018-Jun-13 19:58N 32°47' W 079°57'0 0.0
2018-Jun-13 19:28N 32°47' W 079°57'0 0.0
2018-Jun-13 18:58N 32°47' W 079°57'0 0.0
2018-Jun-13 18:28N 32°47' W 079°57'0 0.0
2018-Jun-13 17:58N 32°47' W 079°57'0 0.0
2018-Jun-13 17:28N 32°47' W 079°57'0 0.0
2018-Jun-13 16:58N 32°47' W 079°57'0 0.0
2018-Jun-13 16:28N 32°47' W 079°57'0 0.0
2018-Jun-13 15:58N 32°47' W 079°57'0 0.0
2018-Jun-13 15:28N 32°47' W 079°57'0 0.0
2018-Jun-13 14:58N 32°47' W 079°57'0 0.0
2018-Jun-13 14:28N 32°47' W 079°57'0 0.0
2018-Jun-13 13:58N 32°47' W 079°57'0 0.0
2018-Jun-13 13:28N 32°47' W 079°57'0 0.0
2018-Jun-13 12:58N 32°47' W 079°57'0 0.0
2018-Jun-13 12:28N 32°47' W 079°57'0 0.0
2018-Jun-13 11:58N 32°47' W 079°57'0 0.0
2018-Jun-13 11:28N 32°47' W 079°57'0 0.0
2018-Jun-13 10:58N 32°47' W 079°57'0 0.0
2018-Jun-13 10:28N 32°47' W 079°57'0 0.0
2018-Jun-13 09:58N 32°47' W 079°57'0 0.0
2018-Jun-13 09:28N 32°47' W 079°57'0 0.0
2018-Jun-13 08:58N 32°47' W 079°57'0 0.0
2018-Jun-13 08:28N 32°47' W 079°57'0 0.0
2018-Jun-13 07:58N 32°47' W 079°57'0 0.0
2018-Jun-13 07:28N 32°47' W 079°57'0 0.0
2018-Jun-13 06:58N 32°47' W 079°57'0 0.0
2018-Jun-13 06:25N 32°47' W 079°57'0 0.0
2018-Jun-13 05:58N 32°47' W 079°57'0 0.0
2018-Jun-13 05:28N 32°47' W 079°57'0 0.0
2018-Jun-13 04:58N 32°47' W 079°57'0 0.0
2018-Jun-13 04:28N 32°47' W 079°57'0 0.0
2018-Jun-13 03:58N 32°47' W 079°57'0 0.0
2018-Jun-13 03:28N 32°47' W 079°57'0 0.0
2018-Jun-13 02:58N 32°47' W 079°57'0 0.0
2018-Jun-13 02:28N 32°47' W 079°57'0 0.0
2018-Jun-13 01:58N 32°47' W 079°57'0 0.0
2018-Jun-13 01:28N 32°47' W 079°57'0 0.0
2018-Jun-13 00:58N 32°47' W 079°57'0 0.0
2018-Jun-13 00:28N 32°47' W 079°57'0 0.0
2018-Jun-12 23:58N 32°47' W 079°57'0 0.0
2018-Jun-12 23:28N 32°47' W 079°57'0 0.0
2018-Jun-12 22:58N 32°47' W 079°57'0 0.0
2018-Jun-12 22:28N 32°47' W 079°57'0 0.0
2018-Jun-12 21:58N 32°47' W 079°57'0 0.4
2018-Jun-12 21:28N 32°47' W 079°57'0 0.1
2018-Jun-12 21:01N 32°47' W 079°57'  
2018-Jun-10 13:56N 26°59' W 080°02'5219.7
2018-Jun-10 11:17N 26°07' W 080°05'2 7.1
2018-Jun-10 10:59N 26°06' W 080°07'1 0.1
2018-Jun-09 20:17N 26°07' W 080°07'1 4.3
2018-Jun-09 19:58N 26°07' W 080°09'1 3.0
2018-Jun-09 19:29N 26°06' W 080°10'0 0.3
2018-Jun-09 18:57N 26°06' W 080°10'0 0.0
2018-Jun-09 18:27N 26°06' W 080°10'0 0.0
2018-Jun-09 17:45N 26°06' W 080°10'0 0.0
2018-Jun-09 16:00N 26°06' W 080°10'0 0.0
2018-Jun-09 15:27N 26°06' W 080°10'0 0.0
2018-Jun-09 06:54N 26°06' W 080°10'0 0.0
2018-Jun-09 05:54N 26°06' W 080°10'0 0.0
2018-Jun-09 05:12N 26°06' W 080°10'0 0.0
2018-Jun-09 04:57N 26°06' W 080°10'0 0.0
2018-Jun-09 04:30N 26°06' W 080°10'0 0.0
2018-Jun-09 03:45N 26°06' W 080°10'0 0.0
2018-Jun-09 03:12N 26°06' W 080°10'0 0.0
2018-Jun-09 02:45N 26°06' W 080°10'0 0.0
2018-Jun-09 01:57N 26°06' W 080°10'0 0.0
2018-Jun-09 01:30N 26°06' W 080°10'0 0.0
2018-Jun-09 00:45N 26°06' W 080°10'0 0.0
2018-Jun-08 23:18N 26°06' W 080°10'0 0.0
2018-Jun-08 20:09N 26°06' W 080°10'0 0.0
2018-Jun-08 19:51N 26°06' W 080°10'0 0.0
2018-Jun-08 19:21N 26°06' W 080°10'0 0.0
2018-Jun-08 18:54N 26°06' W 080°10'0 0.0
2018-Jun-08 18:09N 26°06' W 080°10'0 0.0
2018-Jun-08 17:42N 26°06' W 080°10'0 0.0
2018-Jun-08 17:27N 26°06' W 080°10'0 0.0
2018-Jun-08 15:18N 26°06' W 080°10'0 0.0
2018-Jun-08 14:48N 26°06' W 080°10'0 0.0
2018-Jun-08 09:54N 26°06' W 080°10'0 0.0
2018-Jun-08 04:54N 26°06' W 080°10'0 0.0
2018-Jun-08 03:39N 26°06' W 080°10'0 0.0
2018-Jun-08 03:30N 26°06' W 080°10'0 0.0
2018-Jun-08 02:45N 26°06' W 080°10'0 0.0
2018-Jun-08 02:30N 26°06' W 080°10'0 0.0
2018-Jun-07 21:48N 26°06' W 080°10'0 0.0
2018-Jun-07 17:54N 26°06' W 080°10'0 0.0
2018-Jun-06 21:57N 26°06' W 080°10'0 0.0
2018-Jun-06 21:30N 26°06' W 080°10'0 0.0
2018-Jun-06 20:48N 26°06' W 080°10'0 0.0
2018-Jun-06 20:15N 26°06' W 080°10'0 0.0
2018-Jun-06 16:39N 26°06' W 080°10'0 0.0
2018-Jun-06 16:21N 26°06' W 080°10'  
Track history (hours):
 
Tides and Currents Weather Stations Pressure Air Temp Water Temp Dewpoint Dewpoint Depression Visibility Wind Speed Wind Dir Waves Ship Positions

Kefi

Last reported at 2018-Jun-16 15:31 UTC. Time now 2018-Jun-25 19:43 UTC.
Position N 36°49' W 076°17'.
Warning: this ship's position is 9 days out of date.

Length 30 m.

Type: Ship. MMSI: 378386000.

Date/timePositionNaut miles runAvg speedWind from/ knotsBaromVisibWave heightAir tempDewpointWater temp
2018-Jun-16 15:31N 36°49' W 076°17'1 5.8
2018-Jun-16 15:23N 36°48' W 076°17'2 5.1
2018-Jun-16 15:00N 36°46' W 076°18'119 2.9
2018-Jun-14 21:37N 34°49' W 076°41'1 5.3
2018-Jun-14 21:30N 34°48' W 076°41'4 7.8
2018-Jun-14 21:00N 34°44' W 076°41'611.3
2018-Jun-14 20:30N 34°39' W 076°41'19719.5
2018-Jun-14 10:23N 32°46' W 079°56'1 3.2
2018-Jun-14 09:58N 32°47' W 079°57'0 0.0
2018-Jun-14 09:28N 32°47' W 079°57'0 0.0
2018-Jun-14 08:58N 32°47' W 079°57'0 0.0
2018-Jun-14 08:28N 32°47' W 079°57'0 0.0
2018-Jun-14 07:58N 32°47' W 079°57'0 0.0
2018-Jun-14 07:28N 32°47' W 079°57'0 0.0
2018-Jun-14 06:58N 32°47' W 079°57'0 0.0
2018-Jun-14 06:28N 32°47' W 079°57'0 0.0
2018-Jun-14 05:58N 32°47' W 079°57'0 0.0
2018-Jun-14 05:28N 32°47' W 079°57'0 0.0
2018-Jun-14 04:58N 32°47' W 079°57'0 0.0
2018-Jun-14 04:28N 32°47' W 079°57'0 0.0
2018-Jun-14 03:58N 32°47' W 079°57'0 0.0
2018-Jun-14 03:28N 32°47' W 079°57'0 0.0
2018-Jun-14 02:58N 32°47' W 079°57'0 0.0
2018-Jun-14 02:28N 32°47' W 079°57'0 0.0
2018-Jun-14 01:58N 32°47' W 079°57'0 0.0
2018-Jun-14 01:28N 32°47' W 079°57'0 0.0
2018-Jun-14 00:40N 32°47' W 079°57'0 0.0
2018-Jun-14 00:28N 32°47' W 079°57'0 0.0
2018-Jun-13 23:58N 32°47' W 079°57'0 0.0
2018-Jun-13 23:28N 32°47' W 079°57'0 0.0
2018-Jun-13 22:58N 32°47' W 079°57'0 0.0
2018-Jun-13 22:28N 32°47' W 079°57'0 0.0
2018-Jun-13 21:58N 32°47' W 079°57'0 0.0
2018-Jun-13 21:28N 32°47' W 079°57'0 0.0
2018-Jun-13 20:58N 32°47' W 079°57'0 0.0
2018-Jun-13 20:28N 32°47' W 079°57'0 0.0
2018-Jun-13 19:58N 32°47' W 079°57'0 0.0
2018-Jun-13 19:28N 32°47' W 079°57'0 0.0
2018-Jun-13 18:58N 32°47' W 079°57'0 0.0
2018-Jun-13 18:28N 32°47' W 079°57'0 0.0
2018-Jun-13 17:58N 32°47' W 079°57'0 0.0
2018-Jun-13 17:28N 32°47' W 079°57'0 0.0
2018-Jun-13 16:58N 32°47' W 079°57'0 0.0
2018-Jun-13 16:28N 32°47' W 079°57'0 0.0
2018-Jun-13 15:58N 32°47' W 079°57'0 0.0
2018-Jun-13 15:28N 32°47' W 079°57'0 0.0
2018-Jun-13 14:58N 32°47' W 079°57'0 0.0
2018-Jun-13 14:28N 32°47' W 079°57'0 0.0
2018-Jun-13 13:58N 32°47' W 079°57'0 0.0
2018-Jun-13 13:28N 32°47' W 079°57'0 0.0
2018-Jun-13 12:58N 32°47' W 079°57'0 0.0
2018-Jun-13 12:28N 32°47' W 079°57'0 0.0
2018-Jun-13 11:58N 32°47' W 079°57'0 0.0
2018-Jun-13 11:28N 32°47' W 079°57'0 0.0
2018-Jun-13 10:58N 32°47' W 079°57'0 0.0
2018-Jun-13 10:28N 32°47' W 079°57'0 0.0
2018-Jun-13 09:58N 32°47' W 079°57'0 0.0
2018-Jun-13 09:28N 32°47' W 079°57'0 0.0
2018-Jun-13 08:58N 32°47' W 079°57'0 0.0
2018-Jun-13 08:28N 32°47' W 079°57'0 0.0
2018-Jun-13 07:58N 32°47' W 079°57'0 0.0
2018-Jun-13 07:28N 32°47' W 079°57'0 0.0
2018-Jun-13 06:58N 32°47' W 079°57'0 0.0
2018-Jun-13 06:25N 32°47' W 079°57'0 0.0
2018-Jun-13 05:58N 32°47' W 079°57'0 0.0
2018-Jun-13 05:28N 32°47' W 079°57'0 0.0
2018-Jun-13 04:58N 32°47' W 079°57'0 0.0
2018-Jun-13 04:28N 32°47' W 079°57'0 0.0
2018-Jun-13 03:58N 32°47' W 079°57'0 0.0
2018-Jun-13 03:28N 32°47' W 079°57'0 0.0
2018-Jun-13 02:58N 32°47' W 079°57'0 0.0
2018-Jun-13 02:28N 32°47' W 079°57'0 0.0
2018-Jun-13 01:58N 32°47' W 079°57'0 0.0
2018-Jun-13 01:28N 32°47' W 079°57'0 0.0
2018-Jun-13 00:58N 32°47' W 079°57'0 0.0
2018-Jun-13 00:28N 32°47' W 079°57'0 0.0
2018-Jun-12 23:58N 32°47' W 079°57'0 0.0
2018-Jun-12 23:28N 32°47' W 079°57'0 0.0
2018-Jun-12 22:58N 32°47' W 079°57'0 0.0
2018-Jun-12 22:28N 32°47' W 079°57'0 0.0
2018-Jun-12 21:58N 32°47' W 079°57'0 0.4
2018-Jun-12 21:28N 32°47' W 079°57'0 0.1
2018-Jun-12 21:01N 32°47' W 079°57'  
2018-Jun-10 13:56N 26°59' W 080°02'5219.7
2018-Jun-10 11:17N 26°07' W 080°05'2 7.1
2018-Jun-10 10:59N 26°06' W 080°07'1 0.1
2018-Jun-09 20:17N 26°07' W 080°07'1 4.3
2018-Jun-09 19:58N 26°07' W 080°09'1 3.0
2018-Jun-09 19:29N 26°06' W 080°10'0 0.3
2018-Jun-09 18:57N 26°06' W 080°10'0 0.0
2018-Jun-09 18:27N 26°06' W 080°10'0 0.0
2018-Jun-09 17:45N 26°06' W 080°10'0 0.0
2018-Jun-09 16:00N 26°06' W 080°10'0 0.0
2018-Jun-09 15:27N 26°06' W 080°10'0 0.0
2018-Jun-09 06:54N 26°06' W 080°10'0 0.0
2018-Jun-09 05:54N 26°06' W 080°10'0 0.0
2018-Jun-09 05:12N 26°06' W 080°10'0 0.0
2018-Jun-09 04:57N 26°06' W 080°10'0 0.0
2018-Jun-09 04:30N 26°06' W 080°10'0 0.0
2018-Jun-09 03:45N 26°06' W 080°10'0 0.0
2018-Jun-09 03:12N 26°06' W 080°10'0 0.0
2018-Jun-09 02:45N 26°06' W 080°10'0 0.0
2018-Jun-09 01:57N 26°06' W 080°10'0 0.0
2018-Jun-09 01:30N 26°06' W 080°10'0 0.0
2018-Jun-09 00:45N 26°06' W 080°10'0 0.0
2018-Jun-08 23:18N 26°06' W 080°10'0 0.0
2018-Jun-08 20:09N 26°06' W 080°10'0 0.0
2018-Jun-08 19:51N 26°06' W 080°10'0 0.0
2018-Jun-08 19:21N 26°06' W 080°10'0 0.0
2018-Jun-08 18:54N 26°06' W 080°10'0 0.0
2018-Jun-08 18:09N 26°06' W 080°10'0 0.0
2018-Jun-08 17:42N 26°06' W 080°10'0 0.0
2018-Jun-08 17:27N 26°06' W 080°10'0 0.0
2018-Jun-08 15:18N 26°06' W 080°10'0 0.0
2018-Jun-08 14:48N 26°06' W 080°10'0 0.0
2018-Jun-08 09:54N 26°06' W 080°10'0 0.0
2018-Jun-08 04:54N 26°06' W 080°10'0 0.0
2018-Jun-08 03:39N 26°06' W 080°10'0 0.0
2018-Jun-08 03:30N 26°06' W 080°10'0 0.0
2018-Jun-08 02:45N 26°06' W 080°10'0 0.0
2018-Jun-08 02:30N 26°06' W 080°10'0 0.0
2018-Jun-07 21:48N 26°06' W 080°10'0 0.0
2018-Jun-07 17:54N 26°06' W 080°10'0 0.0
2018-Jun-06 21:57N 26°06' W 080°10'0 0.0
2018-Jun-06 21:30N 26°06' W 080°10'0 0.0
2018-Jun-06 20:48N 26°06' W 080°10'0 0.0
2018-Jun-06 20:15N 26°06' W 080°10'0 0.0
2018-Jun-06 16:39N 26°06' W 080°10'0 0.0
2018-Jun-06 16:21N 26°06' W 080°10'  

Dump ship's entire track history